createdAt,value
2023-04-09T00:01:19.697Z,48.10
2023-04-09T00:03:50.491Z,46.90
2023-04-09T00:06:21.162Z,49.10
2023-04-09T00:08:52.020Z,49.50
2023-04-09T00:13:52.017Z,49.60
2023-04-09T00:16:22.652Z,50.70
2023-04-09T00:18:53.731Z,47.10
2023-04-09T00:21:24.591Z,48.60
2023-04-09T00:23:55.207Z,48.40
2023-04-09T00:26:25.833Z,48.60
2023-04-09T00:28:56.441Z,48.70
2023-04-09T00:31:27.117Z,50.20
2023-04-09T00:33:57.790Z,49.70
2023-04-09T00:36:28.416Z,51.90
2023-04-09T00:38:59.186Z,48.50
2023-04-09T00:41:29.750Z,49.50
2023-04-09T00:44:00.773Z,49.10
2023-04-09T00:46:32.783Z,50.80
2023-04-09T00:49:03.765Z,50.00
2023-04-09T00:51:35.135Z,45.30
2023-04-09T00:54:06.133Z,48.70
2023-04-09T00:56:38.531Z,49.90
2023-04-09T00:59:09.255Z,51.90
2023-04-09T01:01:40.271Z,50.10
2023-04-09T01:06:47.496Z,49.90
2023-04-09T01:09:24.976Z,50.90
2023-04-09T01:12:09.618Z,52.60
2023-04-09T01:14:45.683Z,56.50
2023-04-09T01:17:22.378Z,50.40
2023-04-09T01:20:00.880Z,54.50
2023-04-09T01:22:55.023Z,53.60
2023-04-09T01:25:37.607Z,55.00
2023-04-09T01:28:18.611Z,51.80
2023-04-09T01:30:53.774Z,53.80
2023-04-09T01:33:25.748Z,49.20
2023-04-09T01:35:57.410Z,51.90
2023-04-09T01:38:29.144Z,51.30
2023-04-09T01:41:02.872Z,51.00
2023-04-09T01:43:34.447Z,51.20
2023-04-09T01:46:05.819Z,50.70
2023-04-09T01:48:37.258Z,52.00
2023-04-09T01:51:08.622Z,56.00
2023-04-09T01:56:09.333Z,52.10
2023-04-09T01:58:39.956Z,57.60
2023-04-09T02:01:14.404Z,53.70
2023-04-09T02:03:47.052Z,54.60
2023-04-09T02:06:23.917Z,52.70
2023-04-09T02:08:58.489Z,55.10
2023-04-09T02:11:33.373Z,53.70
2023-04-09T02:14:07.033Z,52.30
2023-04-09T02:16:38.493Z,51.30
2023-04-09T02:19:09.264Z,52.00
2023-04-09T02:21:39.956Z,51.10
2023-04-09T02:24:10.572Z,50.50
2023-04-09T02:26:41.244Z,52.00
2023-04-09T02:29:11.876Z,49.80
2023-04-09T02:31:42.520Z,54.30
2023-04-09T02:34:13.132Z,49.30
2023-04-09T02:36:43.923Z,48.30
2023-04-09T02:39:14.557Z,45.30
2023-04-09T02:41:47.290Z,49.60
2023-04-09T02:44:17.937Z,56.50
2023-04-09T02:46:49.032Z,54.30
2023-04-09T02:49:20.127Z,55.90
2023-04-09T02:51:50.858Z,54.90
2023-04-09T02:54:21.454Z,57.10
2023-04-09T02:56:52.133Z,51.50
2023-04-09T02:59:23.095Z,54.20
2023-04-09T03:04:23.103Z,56.00
2023-04-09T03:06:54.149Z,53.60
2023-04-09T03:09:24.778Z,49.20
2023-04-09T03:11:55.387Z,52.90
2023-04-09T03:14:48.978Z,54.50
2023-04-09T03:17:17.497Z,54.00
2023-04-09T03:19:48.162Z,51.40
2023-04-09T03:22:18.957Z,59.90
2023-04-09T03:24:49.568Z,55.00
2023-04-09T03:27:20.280Z,57.40
2023-04-09T03:29:50.901Z,53.30
2023-04-09T03:32:21.634Z,54.10
2023-04-09T03:34:52.276Z,58.60
2023-04-09T03:37:22.978Z,55.00
2023-04-09T03:39:53.643Z,57.30
2023-04-09T03:42:24.316Z,57.60
2023-04-09T03:44:56.607Z,54.50
2023-04-09T03:47:27.302Z,57.30
2023-04-09T03:49:58.131Z,66.20
2023-04-09T03:52:28.811Z,56.00
2023-04-09T03:54:59.446Z,60.00
2023-04-09T03:57:30.112Z,56.30
2023-04-09T04:00:00.716Z,58.80
2023-04-09T04:02:31.969Z,60.40
2023-04-09T04:05:02.701Z,60.10
2023-04-09T04:07:34.021Z,64.20
2023-04-09T04:10:05.747Z,65.10
2023-04-09T04:12:36.437Z,62.20
2023-04-09T04:15:10.006Z,65.90
2023-04-09T04:17:40.689Z,68.40
2023-04-09T04:20:14.154Z,70.90
2023-04-09T04:22:51.066Z,79.60
2023-04-09T04:25:21.763Z,80.10
2023-04-09T04:27:52.480Z,76.50
2023-04-09T04:30:23.889Z,84.30
2023-04-09T04:32:54.569Z,72.60
2023-04-09T04:35:25.312Z,77.30
2023-04-09T04:37:55.956Z,76.40
2023-04-09T04:40:26.808Z,76.00
2023-04-09T04:42:57.527Z,78.30
2023-04-09T04:45:28.237Z,77.70
2023-04-09T04:47:59.140Z,79.70
2023-04-09T04:50:29.768Z,74.20
2023-04-09T04:53:07.096Z,72.80
2023-04-09T04:55:38.461Z,75.70
2023-04-09T04:58:29.051Z,81.30
2023-04-09T05:00:59.712Z,78.70
2023-04-09T05:03:30.469Z,66.20
2023-04-09T05:06:01.686Z,68.60
2023-04-09T05:08:32.355Z,69.60
2023-04-09T05:11:03.026Z,73.20
2023-04-09T05:13:33.720Z,72.70
2023-04-09T05:16:04.514Z,72.30
2023-04-09T05:18:35.207Z,73.40
2023-04-09T05:21:06.152Z,66.80
2023-04-09T05:26:16.010Z,67.90
2023-04-09T05:28:46.666Z,69.90
2023-04-09T05:34:17.594Z,65.80
2023-04-09T05:36:48.679Z,63.90
2023-04-09T05:41:51.398Z,69.10
2023-04-09T05:44:22.038Z,65.00
2023-04-09T05:47:23.372Z,60.90
2023-04-09T05:49:43.979Z,61.30
2023-04-09T05:52:14.663Z,56.00
2023-04-09T05:54:45.300Z,59.90
2023-04-09T05:57:16.163Z,59.70
2023-04-09T05:59:46.812Z,56.20
2023-04-09T06:02:17.751Z,54.20
2023-04-09T06:07:17.615Z,55.60
2023-04-09T06:09:48.216Z,53.50
2023-04-09T06:12:21.355Z,47.80
2023-04-09T06:14:55.148Z,54.00
2023-04-09T06:17:31.833Z,49.30
2023-04-09T06:20:02.629Z,53.30
2023-04-09T06:22:33.282Z,54.80
2023-04-09T06:25:04.386Z,50.90
2023-04-09T06:27:35.088Z,52.80
2023-04-09T06:30:13.427Z,48.90
2023-04-09T06:32:53.856Z,50.50
2023-04-09T06:35:26.260Z,49.60
2023-04-09T06:40:25.939Z,49.40
2023-04-09T06:42:56.595Z,50.10
2023-04-09T06:45:28.264Z,50.20
2023-04-09T06:48:18.965Z,51.60
2023-04-09T06:50:49.615Z,48.70
2023-04-09T06:53:20.826Z,47.70
2023-04-09T06:55:51.705Z,42.40
2023-04-09T06:58:22.340Z,41.80
2023-04-09T07:00:53.204Z,40.20
2023-04-09T07:03:24.166Z,40.30
2023-04-09T07:08:26.720Z,38.90
2023-04-09T07:11:04.321Z,40.00
2023-04-09T07:13:35.354Z,39.50
2023-04-09T07:16:06.711Z,38.30
2023-04-09T07:18:37.539Z,48.40
2023-04-09T07:21:08.306Z,65.30
2023-04-09T07:23:42.409Z,47.90
2023-04-09T07:26:13.076Z,35.40
2023-04-09T07:28:43.915Z,34.90
2023-04-09T07:31:15.337Z,34.40
2023-04-09T07:33:46.507Z,34.60
2023-04-09T07:38:46.497Z,29.30
2023-04-09T07:41:17.268Z,31.90
2023-04-09T07:43:47.939Z,29.90
2023-04-09T07:46:22.029Z,30.00
2023-04-09T07:48:53.178Z,29.60
2023-04-09T07:53:53.127Z,31.00
2023-04-09T07:56:24.060Z,30.10
2023-04-09T07:58:54.758Z,30.70
2023-04-09T08:01:25.674Z,25.70
2023-04-09T08:04:16.539Z,29.40
2023-04-09T08:06:50.802Z,27.70
2023-04-09T08:09:22.278Z,27.00
2023-04-09T08:11:53.058Z,28.60
2023-04-09T08:14:23.863Z,26.70
2023-04-09T08:16:54.571Z,25.30
2023-04-09T08:19:25.370Z,25.70
2023-04-09T08:21:56.074Z,22.70
2023-04-09T08:24:26.745Z,23.50
2023-04-09T08:27:07.368Z,24.30
2023-04-09T08:30:08.998Z,23.50
2023-04-09T08:32:33.431Z,27.30
2023-04-09T08:35:08.084Z,24.70
2023-04-09T08:37:38.783Z,23.60
2023-04-09T08:40:11.681Z,25.80
2023-04-09T08:42:46.026Z,23.70
2023-04-09T08:45:47.778Z,22.80
2023-04-09T08:48:10.835Z,24.30
2023-04-09T08:50:41.762Z,23.20
2023-04-09T08:53:13.559Z,23.60
2023-04-09T08:55:56.842Z,24.40
2023-04-09T08:58:27.630Z,24.80
2023-04-09T09:01:21.572Z,21.60
2023-04-09T09:04:07.186Z,24.50
2023-04-09T09:06:39.987Z,25.50
2023-04-09T09:09:12.576Z,24.10
2023-04-09T09:11:44.515Z,22.80
2023-04-09T09:14:16.477Z,21.10
2023-04-09T09:17:08.547Z,25.00
2023-04-09T09:19:39.666Z,23.80
2023-04-09T09:22:10.683Z,24.30
2023-04-09T09:24:50.371Z,24.90
2023-04-09T09:27:35.027Z,30.10
2023-04-09T09:30:36.598Z,29.40
2023-04-09T09:33:13.364Z,28.30
2023-04-09T09:35:51.643Z,30.30
2023-04-09T09:40:54.328Z,30.90
2023-04-09T09:43:25.132Z,29.30
2023-04-09T09:45:58.377Z,28.80
2023-04-09T09:48:31.312Z,28.90
2023-04-09T09:51:02.934Z,28.90
2023-04-09T09:53:35.847Z,29.30
2023-04-09T09:56:14.291Z,25.60
2023-04-09T09:59:00.125Z,26.50
2023-04-09T10:01:31.078Z,29.90
2023-04-09T10:06:32.704Z,27.70
2023-04-09T10:09:09.088Z,29.10
2023-04-09T10:11:42.569Z,25.60
2023-04-09T10:14:13.775Z,29.80
2023-04-09T10:16:44.908Z,34.90
2023-04-09T10:19:16.074Z,32.90
2023-04-09T10:21:55.315Z,23.60
2023-04-09T10:24:26.661Z,24.70
2023-04-09T10:29:44.031Z,22.50
2023-04-09T10:32:20.721Z,23.00
2023-04-09T10:34:52.233Z,24.30
2023-04-09T10:37:24.953Z,21.30
2023-04-09T10:39:56.038Z,22.30
2023-04-09T10:42:33.132Z,20.80
2023-04-09T10:45:13.589Z,20.60
2023-04-09T10:47:45.076Z,21.70
2023-04-09T10:50:20.160Z,20.10
2023-04-09T10:52:54.439Z,19.30
2023-04-09T10:55:35.068Z,19.40
2023-04-09T10:58:07.552Z,19.20
2023-04-09T11:00:41.314Z,22.50
2023-04-09T11:03:24.074Z,22.40
2023-04-09T11:06:04.781Z,20.10
2023-04-09T11:08:36.026Z,18.60
2023-04-09T11:11:06.932Z,18.40
2023-04-09T11:13:37.634Z,25.70
2023-04-09T11:16:11.746Z,18.50
2023-04-09T11:18:54.504Z,17.00
2023-04-09T11:21:28.418Z,17.40
2023-04-09T11:23:59.472Z,18.80
2023-04-09T11:26:38.076Z,14.80
2023-04-09T11:29:08.722Z,14.90
2023-04-09T11:31:39.373Z,15.30
2023-04-09T11:34:11.552Z,16.10
2023-04-09T11:36:42.367Z,16.20
2023-04-09T11:39:13.046Z,18.50
2023-04-09T11:41:43.665Z,19.20
2023-04-09T11:44:15.480Z,17.10
2023-04-09T11:46:46.851Z,17.10
2023-04-09T11:49:17.910Z,17.70
2023-04-09T11:54:17.717Z,17.40
2023-04-09T11:56:50.858Z,18.80
2023-04-09T11:59:21.598Z,19.90
2023-04-09T12:01:52.604Z,20.50
2023-04-09T12:04:23.414Z,21.70
2023-04-09T12:09:27.488Z,22.80
2023-04-09T12:11:59.171Z,18.60
2023-04-09T12:14:29.803Z,18.70
2023-04-09T12:17:00.517Z,18.20
2023-04-09T12:19:33.432Z,20.10
2023-04-09T12:22:05.615Z,35.70
2023-04-09T12:24:38.520Z,46.40
2023-04-09T12:27:33.476Z,31.40
2023-04-09T12:30:14.272Z,39.20
2023-04-09T12:32:45.033Z,27.60
2023-04-09T12:37:45.664Z,18.00
2023-04-09T12:40:16.545Z,19.70
2023-04-09T12:45:18.524Z,17.00
2023-04-09T12:47:49.417Z,15.00
2023-04-09T12:52:49.662Z,14.70
2023-04-09T12:55:20.325Z,15.00
2023-04-09T12:57:56.195Z,15.80
2023-04-09T13:00:27.008Z,15.60
2023-04-09T13:02:57.890Z,14.10
2023-04-09T13:05:30.818Z,12.20
2023-04-09T13:08:01.408Z,14.10
2023-04-09T13:10:36.977Z,13.20
2023-04-09T13:13:10.050Z,14.30
2023-04-09T13:15:41.549Z,11.90
2023-04-09T13:18:13.079Z,14.80
2023-04-09T13:20:43.719Z,13.60
2023-04-09T13:23:14.368Z,12.10
2023-04-09T13:25:45.091Z,11.90
2023-04-09T13:28:15.724Z,11.90
2023-04-09T13:30:47.629Z,13.10
2023-04-09T13:33:18.275Z,13.10
2023-04-09T13:35:48.968Z,12.60
2023-04-09T13:38:19.686Z,12.70
2023-04-09T13:40:50.465Z,11.30
2023-04-09T13:43:21.160Z,11.60
2023-04-09T13:45:51.933Z,11.20
2023-04-09T13:48:22.788Z,12.20
2023-04-09T13:53:22.599Z,12.50
2023-04-09T13:55:55.657Z,13.40
2023-04-09T13:58:26.357Z,11.90
2023-04-09T14:00:57.028Z,12.20
2023-04-09T14:03:27.824Z,11.20
2023-04-09T14:08:27.593Z,13.80
2023-04-09T14:10:58.255Z,12.20
2023-04-09T14:13:29.228Z,13.20
2023-04-09T14:16:00.620Z,13.00
2023-04-09T14:18:31.385Z,14.30
2023-04-09T14:21:02.126Z,15.40
2023-04-09T14:24:52.260Z,15.40
2023-04-09T14:26:34.294Z,14.50
2023-04-09T14:29:05.331Z,15.50
2023-04-09T14:31:38.283Z,15.40
2023-04-09T14:34:08.974Z,14.70
2023-04-09T14:36:39.570Z,13.30
2023-04-09T14:39:22.909Z,14.00
2023-04-09T14:41:53.631Z,13.60
2023-04-09T14:44:24.342Z,12.30
2023-04-09T14:46:55.281Z,13.20
2023-04-09T14:51:55.195Z,12.50
2023-04-09T14:54:26.025Z,17.60
2023-04-09T14:56:56.757Z,14.60
2023-04-09T14:59:27.493Z,13.60
2023-04-09T15:01:58.156Z,16.90
2023-04-09T15:04:28.945Z,22.50
2023-04-09T15:06:59.570Z,23.00
2023-04-09T15:09:30.337Z,15.90
2023-04-09T15:12:03.673Z,14.60
2023-04-09T15:14:34.366Z,12.70
2023-04-09T15:17:05.021Z,15.30
2023-04-09T15:19:35.922Z,13.00
2023-04-09T15:22:06.520Z,15.00
2023-04-09T15:24:37.274Z,14.20
2023-04-09T15:27:07.899Z,15.00
2023-04-09T15:29:38.663Z,13.80
2023-04-09T15:32:09.310Z,13.90
2023-04-09T15:34:49.986Z,12.30
2023-04-09T15:37:20.677Z,15.90
2023-04-09T15:39:51.289Z,12.70
2023-04-09T15:42:21.922Z,13.90
2023-04-09T15:44:52.609Z,16.80
2023-04-09T15:47:23.247Z,16.60
2023-04-09T15:49:54.100Z,17.40
2023-04-09T15:52:24.736Z,17.30
2023-04-09T15:54:55.954Z,20.80
2023-04-09T15:57:26.781Z,16.60
2023-04-09T15:59:57.466Z,16.60
2023-04-09T16:02:28.181Z,15.30
2023-04-09T16:04:59.286Z,15.70
2023-04-09T16:07:29.907Z,15.80
2023-04-09T16:10:02.000Z,15.10
2023-04-09T16:12:32.610Z,16.80
2023-04-09T16:15:03.391Z,16.00
2023-04-09T16:17:40.300Z,22.70
2023-04-09T16:20:19.175Z,16.40
2023-04-09T16:22:51.637Z,14.70
2023-04-09T16:25:22.390Z,16.40
2023-04-09T16:27:52.980Z,16.80
2023-04-09T16:30:31.686Z,16.40
2023-04-09T16:33:02.584Z,14.80
2023-04-09T16:35:33.438Z,17.40
2023-04-09T16:38:04.256Z,16.70
2023-04-09T16:43:05.062Z,15.00
2023-04-09T16:45:36.183Z,15.80
2023-04-09T16:48:07.248Z,17.20
2023-04-09T16:50:38.293Z,15.20
2023-04-09T16:55:38.575Z,17.80
2023-04-09T16:58:09.590Z,21.00
2023-04-09T17:00:40.415Z,19.40
2023-04-09T17:03:11.461Z,17.50
2023-04-09T17:05:42.118Z,18.60
2023-04-09T17:08:12.821Z,21.10
2023-04-09T17:10:43.900Z,17.90
2023-04-09T17:13:15.090Z,17.90
2023-04-09T17:15:45.688Z,22.30
2023-04-09T17:20:55.245Z,19.00
2023-04-09T17:23:26.238Z,18.70
2023-04-09T17:25:56.997Z,17.80
2023-04-09T17:28:27.823Z,18.60
2023-04-09T17:30:58.833Z,20.10
2023-04-09T17:33:29.501Z,18.20
2023-04-09T17:36:00.194Z,19.50
2023-04-09T17:38:30.936Z,18.60
2023-04-09T17:41:34.762Z,18.70
2023-04-09T17:43:56.036Z,27.40
2023-04-09T17:46:26.765Z,21.70
2023-04-09T17:48:57.548Z,21.90
2023-04-09T17:53:57.820Z,18.90
2023-04-09T17:58:57.895Z,21.10
2023-04-09T18:01:29.879Z,24.80
2023-04-09T18:04:01.457Z,24.00
2023-04-09T18:06:33.317Z,23.90
2023-04-09T18:09:04.251Z,21.00
2023-04-09T18:11:34.862Z,22.80
2023-04-09T18:14:05.550Z,25.90
2023-04-09T18:16:37.223Z,22.80
2023-04-09T18:19:08.399Z,26.00
2023-04-09T18:21:39.095Z,23.00
2023-04-09T18:24:09.830Z,22.50
2023-04-09T18:26:40.514Z,26.00
2023-04-09T18:29:11.160Z,22.00
2023-04-09T18:34:11.695Z,27.10
2023-04-09T18:36:42.608Z,24.80
2023-04-09T18:39:13.297Z,28.20
2023-04-09T18:41:44.558Z,28.70
2023-04-09T18:44:15.665Z,26.00
2023-04-09T18:46:46.445Z,29.90
2023-04-09T18:49:38.056Z,27.00
2023-04-09T18:52:09.045Z,29.20
2023-04-09T18:54:39.742Z,27.10
2023-04-09T18:59:40.484Z,27.40
2023-04-09T19:04:52.000Z,26.50
2023-04-09T19:08:35.541Z,31.90
2023-04-09T19:11:06.540Z,28.60
2023-04-09T19:13:35.450Z,28.90
2023-04-09T19:16:07.806Z,27.40
2023-04-09T19:18:38.944Z,31.90
2023-04-09T19:23:39.680Z,31.60
2023-04-09T19:26:11.204Z,31.20
2023-04-09T19:28:42.190Z,34.50
2023-04-09T19:31:13.055Z,29.30
2023-04-09T19:33:44.076Z,32.60
2023-04-09T19:36:15.318Z,36.10
2023-04-09T19:38:45.910Z,32.60
2023-04-09T19:41:16.898Z,31.00
2023-04-09T19:43:48.596Z,32.70
2023-04-09T19:46:19.301Z,36.00
2023-04-09T19:48:50.078Z,33.60
2023-04-09T19:51:21.241Z,33.40
2023-04-09T19:53:56.128Z,33.60
2023-04-09T19:56:27.872Z,36.30
2023-04-09T19:58:58.481Z,37.10
2023-04-09T20:01:29.251Z,37.40
2023-04-09T20:04:00.249Z,37.20
2023-04-09T20:06:31.128Z,35.60
2023-04-09T20:09:01.800Z,38.70
2023-04-09T20:11:32.468Z,45.80
2023-04-09T20:14:03.096Z,40.10
2023-04-09T20:16:33.808Z,40.20
2023-04-09T20:19:04.476Z,42.30
2023-04-09T20:21:35.265Z,48.60
2023-04-09T20:24:07.999Z,70.70
2023-04-09T20:26:59.314Z,78.60
2023-04-09T20:29:32.628Z,101.40
2023-04-09T20:32:03.354Z,116.20
2023-04-09T20:34:34.066Z,108.50
2023-04-09T20:37:24.702Z,114.70
2023-04-09T20:40:00.551Z,101.20
2023-04-09T20:42:31.279Z,88.80
2023-04-09T20:45:07.643Z,80.40
2023-04-09T20:47:38.416Z,74.40
2023-04-09T20:50:10.534Z,57.00
2023-04-09T20:52:41.688Z,54.00
2023-04-09T20:55:12.560Z,51.40
2023-04-09T20:57:43.201Z,47.60
2023-04-09T21:00:14.946Z,44.90
2023-04-09T21:02:45.882Z,50.60
2023-04-09T21:07:55.470Z,44.10
2023-04-09T21:10:26.134Z,39.30
2023-04-09T21:13:03.422Z,42.10
2023-04-09T21:15:34.017Z,47.90
2023-04-09T21:18:04.804Z,49.50
2023-04-09T21:20:35.452Z,61.60
2023-04-09T21:23:06.641Z,67.40
2023-04-09T21:25:37.338Z,76.30
2023-04-09T21:28:08.400Z,69.10
2023-04-09T21:30:39.082Z,60.70
2023-04-09T21:33:10.218Z,65.30
2023-04-09T21:35:40.877Z,62.00
2023-04-09T21:38:11.591Z,65.30
2023-04-09T21:40:42.248Z,63.70
2023-04-09T21:43:12.858Z,65.40
2023-04-09T21:45:43.484Z,63.60
2023-04-09T21:48:14.388Z,62.90
2023-04-09T21:50:44.998Z,57.50
2023-04-09T21:53:18.096Z,59.10
2023-04-09T21:55:48.775Z,63.20
2023-04-09T21:58:19.383Z,61.60
2023-04-09T22:00:50.073Z,57.70
2023-04-09T22:03:20.934Z,61.00
2023-04-09T22:05:51.909Z,62.00
2023-04-09T22:08:22.540Z,62.20
2023-04-09T22:10:55.909Z,61.10
2023-04-09T22:13:26.644Z,60.30
2023-04-09T22:15:57.330Z,61.50
2023-04-09T22:18:28.076Z,57.10
2023-04-09T22:20:58.742Z,60.40
2023-04-09T22:23:29.453Z,59.70
2023-04-09T22:26:03.368Z,63.00
2023-04-09T22:28:34.032Z,66.50
2023-04-09T22:31:04.951Z,72.20
2023-04-09T22:33:35.692Z,71.90
2023-04-09T22:36:08.629Z,81.40
2023-04-09T22:38:39.304Z,71.80
2023-04-09T22:41:09.996Z,77.40
2023-04-09T22:43:40.673Z,88.90
2023-04-09T22:46:11.305Z,102.10
2023-04-09T22:48:44.969Z,106.00
2023-04-09T22:51:26.145Z,95.20
2023-04-09T22:53:56.854Z,97.10
2023-04-09T22:56:27.705Z,92.40
2023-04-09T22:58:58.425Z,96.50
2023-04-09T23:01:29.185Z,100.50
2023-04-09T23:03:59.871Z,112.60
2023-04-09T23:06:30.577Z,120.20
2023-04-09T23:09:01.474Z,122.30
2023-04-09T23:11:32.131Z,116.90
2023-04-09T23:14:02.831Z,113.00
2023-04-09T23:16:33.517Z,98.10
2023-04-09T23:19:04.292Z,120.80
2023-04-09T23:21:34.936Z,110.50
2023-04-09T23:24:06.034Z,113.80
2023-04-09T23:29:05.676Z,111.10
2023-04-09T23:31:36.370Z,105.00
2023-04-09T23:34:07.133Z,102.70
2023-04-09T23:36:37.787Z,101.20
2023-04-09T23:39:08.411Z,106.10
2023-04-09T23:41:39.014Z,107.50
2023-04-09T23:44:09.623Z,121.50
2023-04-09T23:49:31.460Z,92.30
2023-04-09T23:52:02.053Z,88.90
2023-04-09T23:54:32.723Z,81.40
2023-04-09T23:57:03.393Z,78.00
2023-04-09T23:59:34.083Z,100.30
